createdAt,value
2018-10-02T00:00:51.573Z,9.13
2018-10-02T00:03:20.705Z,9.15
2018-10-02T00:05:49.971Z,9.25
2018-10-02T00:08:19.050Z,9.34
2018-10-02T00:10:53.663Z,9.28
2018-10-02T00:13:28.112Z,9.30
2018-10-02T00:15:57.525Z,9.38
2018-10-02T00:18:26.641Z,9.31
2018-10-02T00:20:55.786Z,9.37
2018-10-02T00:23:24.933Z,9.36
2018-10-02T00:25:54.139Z,9.22
2018-10-02T00:28:23.591Z,9.11
2018-10-02T00:30:52.713Z,9.14
2018-10-02T00:33:21.883Z,9.17
2018-10-02T00:35:51.117Z,9.10
2018-10-02T00:38:20.635Z,9.20
2018-10-02T00:40:49.824Z,9.03
2018-10-02T00:43:19.166Z,9.18
2018-10-02T00:45:48.696Z,9.00
2018-10-02T00:48:18.030Z,9.11
2018-10-02T00:50:47.391Z,9.02
2018-10-02T00:53:16.622Z,9.08
2018-10-02T00:55:45.742Z,9.15
2018-10-02T00:58:14.925Z,9.10
2018-10-02T01:00:44.100Z,9.15
2018-10-02T01:03:13.110Z,9.07
2018-10-02T01:05:42.226Z,9.20
2018-10-02T01:08:11.421Z,9.22
2018-10-02T01:10:40.517Z,9.17
2018-10-02T01:13:09.697Z,9.10
2018-10-02T01:15:38.896Z,9.23
2018-10-02T01:18:08.092Z,9.32
2018-10-02T01:20:37.259Z,9.28
2018-10-02T01:23:06.393Z,9.29
2018-10-02T01:25:35.501Z,9.16
2018-10-02T01:28:04.704Z,9.21
2018-10-02T01:30:33.801Z,9.35
2018-10-02T01:33:03.298Z,9.36
2018-10-02T01:35:32.507Z,9.29
2018-10-02T01:38:01.679Z,9.27
2018-10-02T01:40:31.001Z,9.29
2018-10-02T01:43:00.177Z,9.36
2018-10-02T01:45:29.366Z,9.38
2018-10-02T01:47:58.785Z,9.33
2018-10-02T01:50:27.901Z,9.23
2018-10-02T01:52:57.056Z,9.32
2018-10-02T01:55:26.327Z,9.07
2018-10-02T01:57:55.699Z,9.11
2018-10-02T02:00:24.889Z,9.09
2018-10-02T02:02:54.072Z,9.00
2018-10-02T02:05:23.534Z,9.05
2018-10-02T02:07:52.997Z,9.09
2018-10-02T02:10:22.366Z,8.92
2018-10-02T02:12:51.850Z,9.08
2018-10-02T02:15:21.085Z,9.12
2018-10-02T02:17:50.280Z,9.24
2018-10-02T02:20:19.687Z,9.29
2018-10-02T02:22:49.215Z,9.30
2018-10-02T02:25:18.677Z,9.35
2018-10-02T02:27:48.212Z,9.43
2018-10-02T02:30:17.576Z,9.48
2018-10-02T02:32:47.013Z,9.59
2018-10-02T02:35:16.203Z,9.66
2018-10-02T02:37:45.381Z,9.73
2018-10-02T02:40:14.418Z,9.89
2018-10-02T02:42:43.702Z,9.71
2018-10-02T02:45:12.866Z,9.74
2018-10-02T02:47:47.023Z,8.61
2018-10-02T02:50:21.118Z,8.55
2018-10-02T02:52:54.346Z,8.89
2018-10-02T02:55:23.429Z,8.45
2018-10-02T02:57:52.771Z,8.85
2018-10-02T03:00:22.227Z,9.16
2018-10-02T03:02:51.777Z,9.24
2018-10-02T03:05:21.293Z,9.05
2018-10-02T03:07:50.635Z,8.79
2018-10-02T03:10:20.113Z,8.93
2018-10-02T03:12:49.450Z,9.04
2018-10-02T03:15:18.562Z,9.33
2018-10-02T03:17:47.889Z,9.42
2018-10-02T03:20:17.300Z,9.71
2018-10-02T03:22:46.644Z,9.14
2018-10-02T03:25:16.126Z,9.19
2018-10-02T03:27:45.447Z,9.25
2018-10-02T03:30:14.901Z,8.85
2018-10-02T03:32:44.257Z,9.48
2018-10-02T03:35:13.639Z,9.45
2018-10-02T03:37:43.090Z,9.38
2018-10-02T03:40:12.816Z,9.13
2018-10-02T03:42:42.268Z,9.32
2018-10-02T03:45:11.747Z,9.47
2018-10-02T03:47:41.190Z,9.23
2018-10-02T03:50:10.668Z,9.55
2018-10-02T03:52:40.202Z,8.93
2018-10-02T03:55:09.567Z,8.29
2018-10-02T03:57:39.005Z,8.18
2018-10-02T04:00:08.356Z,8.82
2018-10-02T04:02:37.859Z,8.58
2018-10-02T04:05:07.206Z,8.50
2018-10-02T04:07:36.511Z,8.39
2018-10-02T04:10:05.983Z,8.74
2018-10-02T04:12:35.422Z,8.82
2018-10-02T04:15:04.897Z,8.91
2018-10-02T04:17:34.353Z,9.11
2018-10-02T04:20:03.833Z,9.12
2018-10-02T04:22:33.227Z,9.23
2018-10-02T04:25:02.661Z,9.29
2018-10-02T04:27:32.120Z,9.16
2018-10-02T04:30:01.555Z,9.20
2018-10-02T04:32:30.957Z,9.33
2018-10-02T04:35:00.352Z,9.29
2018-10-02T04:37:29.787Z,9.07
2018-10-02T04:39:59.376Z,9.15
2018-10-02T04:42:28.479Z,9.08
2018-10-02T04:44:57.686Z,9.07
2018-10-02T04:47:26.999Z,9.27
2018-10-02T04:49:56.464Z,9.19
2018-10-02T04:52:25.629Z,9.57
2018-10-02T04:54:54.984Z,9.69
2018-10-02T04:57:24.317Z,9.47
2018-10-02T04:59:53.791Z,9.43
2018-10-02T05:02:23.201Z,9.41
2018-10-02T05:04:52.532Z,9.34
2018-10-02T05:07:22.080Z,9.52
2018-10-02T05:09:51.497Z,9.54
2018-10-02T05:12:20.869Z,9.26
2018-10-02T05:14:50.202Z,9.01
2018-10-02T05:17:19.478Z,8.99
2018-10-02T05:19:48.893Z,9.27
2018-10-02T05:22:18.039Z,9.16
2018-10-02T05:24:47.287Z,9.21
2018-10-02T05:27:16.463Z,9.53
2018-10-02T05:29:45.847Z,9.27
2018-10-02T05:32:15.155Z,9.21
2018-10-02T05:34:44.416Z,9.50
2018-10-02T05:37:13.551Z,9.23
2018-10-02T05:39:42.793Z,9.09
2018-10-02T05:42:11.979Z,9.17
2018-10-02T05:44:41.266Z,9.19
2018-10-02T05:47:10.514Z,9.03
2018-10-02T05:49:40.014Z,9.23
2018-10-02T05:52:09.413Z,9.16
2018-10-02T05:54:38.869Z,9.02
2018-10-02T05:57:08.406Z,8.79
2018-10-02T05:59:37.653Z,9.37
2018-10-02T06:02:07.206Z,9.22
2018-10-02T06:04:36.681Z,9.16
2018-10-02T06:07:06.101Z,9.67
2018-10-02T06:09:35.438Z,9.40
2018-10-02T06:12:04.839Z,9.06
2018-10-02T06:14:34.205Z,9.16
2018-10-02T06:17:03.561Z,9.01
2018-10-02T06:19:32.950Z,9.32
2018-10-02T06:22:02.517Z,9.35
2018-10-02T06:24:31.868Z,9.21
2018-10-02T06:27:01.799Z,9.41
2018-10-02T06:29:30.869Z,9.31
2018-10-02T06:32:00.407Z,9.66
2018-10-02T06:34:29.839Z,9.78
2018-10-02T06:37:00.131Z,9.37
2018-10-02T06:39:32.102Z,9.49
2018-10-02T06:42:02.138Z,9.31
2018-10-02T06:44:33.348Z,9.35
2018-10-02T06:47:02.832Z,9.50
2018-10-02T06:49:32.347Z,9.55
2018-10-02T06:52:01.902Z,9.35
2018-10-02T06:54:31.310Z,9.43
2018-10-02T06:57:00.773Z,9.64
2018-10-02T06:59:30.026Z,9.66
2018-10-02T07:01:59.478Z,9.41
2018-10-02T07:04:29.038Z,9.76
2018-10-02T07:06:58.822Z,9.72
2018-10-02T07:09:28.131Z,9.59
2018-10-02T07:11:57.502Z,9.77
2018-10-02T07:14:26.984Z,9.92
2018-10-02T07:16:56.214Z,9.82
2018-10-02T07:19:25.486Z,9.55
2018-10-02T07:21:54.811Z,9.62
2018-10-02T07:24:24.107Z,9.64
2018-10-02T07:26:53.715Z,9.90
2018-10-02T07:29:22.514Z,10.02
2018-10-02T07:31:51.508Z,10.24
2018-10-02T07:34:20.488Z,9.96
2018-10-02T07:36:49.850Z,10.02
2018-10-02T07:39:19.147Z,9.78
2018-10-02T07:41:48.524Z,10.00
2018-10-02T07:44:17.870Z,9.97
2018-10-02T07:46:46.964Z,10.29
2018-10-02T07:49:16.182Z,10.15
2018-10-02T07:51:45.389Z,10.22
2018-10-02T07:54:15.049Z,10.11
2018-10-02T07:56:44.153Z,10.05
2018-10-02T07:59:13.258Z,9.90
2018-10-02T08:01:42.416Z,9.89
2018-10-02T08:04:11.669Z,9.99
2018-10-02T08:06:41.109Z,10.46
2018-10-02T08:09:12.029Z,10.60
2018-10-02T08:11:41.396Z,10.72
2018-10-02T08:14:10.680Z,10.65
2018-10-02T08:16:40.514Z,10.51
2018-10-02T08:19:09.481Z,10.23
2018-10-02T08:21:38.634Z,10.27
2018-10-02T08:24:07.850Z,9.95
2018-10-02T08:26:37.254Z,9.94
2018-10-02T08:29:06.536Z,9.89
2018-10-02T08:31:35.839Z,10.06
2018-10-02T08:34:04.986Z,9.89
2018-10-02T08:36:34.318Z,10.40
2018-10-02T08:39:03.849Z,10.34
2018-10-02T08:41:32.946Z,10.42
2018-10-02T08:44:02.086Z,10.36
2018-10-02T08:46:31.534Z,10.42
2018-10-02T08:49:00.542Z,10.73
2018-10-02T08:51:30.186Z,10.52
2018-10-02T08:53:59.570Z,10.37
2018-10-02T08:56:28.528Z,10.67
2018-10-02T08:58:57.635Z,10.32
2018-10-02T09:01:26.930Z,10.39
2018-10-02T09:03:55.849Z,10.72
2018-10-02T09:06:24.964Z,10.87
2018-10-02T09:08:53.894Z,10.56
2018-10-02T09:11:23.111Z,10.64
2018-10-02T09:13:52.161Z,10.66
2018-10-02T09:16:21.444Z,10.90
2018-10-02T09:18:50.889Z,10.79
2018-10-02T09:21:20.158Z,10.96
2018-10-02T09:23:49.334Z,10.84
2018-10-02T09:26:18.319Z,11.04
2018-10-02T09:28:47.326Z,11.30
2018-10-02T09:31:21.420Z,10.84
2018-10-02T09:33:55.510Z,10.91
2018-10-02T09:36:29.754Z,10.89
2018-10-02T09:39:03.985Z,11.23
2018-10-02T09:41:38.288Z,10.94
2018-10-02T09:44:07.626Z,11.28
2018-10-02T09:46:36.751Z,10.94
2018-10-02T09:49:06.093Z,11.01
2018-10-02T09:51:35.482Z,11.05
2018-10-02T09:54:04.750Z,11.11
2018-10-02T09:56:39.178Z,10.98
2018-10-02T09:59:08.438Z,10.81
2018-10-02T10:01:42.604Z,10.79
2018-10-02T10:04:11.834Z,11.01
2018-10-02T10:06:40.900Z,11.17
2018-10-02T10:09:10.990Z,10.99
2018-10-02T10:11:40.552Z,11.03
2018-10-02T10:14:10.201Z,10.77
2018-10-02T10:16:39.687Z,10.83
2018-10-02T10:19:08.707Z,10.96
2018-10-02T10:21:38.093Z,10.72
2018-10-02T10:24:07.246Z,10.49
2018-10-02T10:26:36.701Z,10.30
2018-10-02T10:29:05.967Z,10.59
2018-10-02T10:31:35.225Z,10.51
2018-10-02T10:34:04.282Z,10.62
2018-10-02T10:36:33.253Z,10.50
2018-10-02T10:39:02.630Z,10.44
2018-10-02T10:41:31.813Z,10.26
2018-10-02T10:44:01.031Z,10.35
2018-10-02T10:46:30.006Z,10.31
2018-10-02T10:48:58.985Z,10.19
2018-10-02T10:51:27.893Z,10.12
2018-10-02T10:53:57.030Z,10.06
2018-10-02T10:56:25.997Z,10.14
2018-10-02T10:58:55.017Z,10.21
2018-10-02T11:01:23.943Z,10.23
2018-10-02T11:03:53.000Z,10.32
2018-10-02T11:06:21.956Z,10.17
2018-10-02T11:08:50.906Z,10.14
2018-10-02T11:11:19.836Z,10.10
2018-10-02T11:13:48.832Z,9.90
2018-10-02T11:16:17.776Z,9.98
2018-10-02T11:18:46.749Z,10.09
2018-10-02T11:21:15.740Z,10.24
2018-10-02T11:23:44.784Z,10.05
2018-10-02T11:26:13.659Z,10.10
2018-10-02T11:28:42.600Z,10.05
2018-10-02T11:31:11.567Z,9.97
2018-10-02T11:33:40.502Z,10.11
2018-10-02T11:36:09.418Z,9.98
2018-10-02T11:38:38.404Z,9.89
2018-10-02T11:41:08.405Z,9.99
2018-10-02T11:43:37.516Z,10.08
2018-10-02T11:46:06.425Z,9.97
2018-10-02T11:48:35.350Z,10.10
2018-10-02T11:51:04.421Z,9.76
2018-10-02T11:53:33.350Z,9.73
2018-10-02T11:56:02.281Z,9.66
2018-10-02T11:58:31.217Z,9.63
2018-10-02T12:01:00.215Z,9.75
2018-10-02T12:03:29.171Z,9.86
2018-10-02T12:05:58.184Z,9.94
2018-10-02T12:08:27.133Z,9.58
2018-10-02T12:10:56.057Z,9.79
2018-10-02T12:13:25.125Z,9.88
2018-10-02T12:15:54.026Z,9.72
2018-10-02T12:18:22.978Z,9.83
2018-10-02T12:20:51.923Z,9.74
2018-10-02T12:23:20.911Z,9.58
2018-10-02T12:25:49.829Z,9.73
2018-10-02T12:28:18.873Z,9.80
2018-10-02T12:30:47.789Z,9.83
2018-10-02T12:33:16.730Z,9.87
2018-10-02T12:35:45.653Z,10.00
2018-10-02T12:38:16.969Z,9.92
2018-10-02T12:40:45.882Z,10.07
2018-10-02T12:43:15.202Z,9.84
2018-10-02T12:45:44.391Z,9.72
2018-10-02T12:48:13.630Z,9.91
2018-10-02T12:50:42.633Z,9.64
2018-10-02T12:53:11.632Z,10.00
2018-10-02T12:55:40.710Z,9.94
2018-10-02T12:58:09.708Z,9.95
2018-10-02T13:00:38.676Z,9.99
2018-10-02T13:03:07.646Z,10.03
2018-10-02T13:05:36.688Z,10.05
2018-10-02T13:08:05.637Z,10.33
2018-10-02T13:10:34.587Z,10.07
2018-10-02T13:13:03.542Z,10.04
2018-10-02T13:15:32.518Z,10.12
2018-10-02T13:18:01.509Z,10.24
2018-10-02T13:20:30.443Z,10.16
2018-10-02T13:22:59.407Z,10.29
2018-10-02T13:25:28.482Z,10.18
2018-10-02T13:27:57.395Z,10.38
2018-10-02T13:30:26.475Z,10.36
2018-10-02T13:32:55.370Z,10.29
2018-10-02T13:35:24.358Z,10.09
2018-10-02T13:37:53.345Z,10.12
2018-10-02T13:40:22.926Z,10.13
2018-10-02T13:42:52.830Z,10.04
2018-10-02T13:45:22.237Z,10.19
2018-10-02T13:47:51.579Z,10.04
2018-10-02T13:50:20.553Z,10.20
2018-10-02T13:52:49.503Z,10.31
2018-10-02T13:55:18.735Z,10.19
2018-10-02T13:57:47.671Z,10.31
2018-10-02T14:00:16.637Z,10.21
2018-10-02T14:02:45.567Z,10.07
2018-10-02T14:05:14.738Z,10.29
2018-10-02T14:07:43.711Z,10.16
2018-10-02T14:10:12.678Z,10.23
2018-10-02T14:12:41.618Z,10.37
2018-10-02T14:15:10.583Z,10.38
2018-10-02T14:17:39.497Z,10.38
2018-10-02T14:20:08.498Z,10.51
2018-10-02T14:22:37.442Z,10.50
2018-10-02T14:25:06.414Z,10.46
2018-10-02T14:27:35.398Z,10.62
2018-10-02T14:30:04.472Z,10.80
2018-10-02T14:32:33.502Z,10.64
2018-10-02T14:35:02.486Z,10.76
2018-10-02T14:37:31.427Z,10.96
2018-10-02T14:40:00.393Z,10.83
2018-10-02T14:42:29.431Z,10.89
2018-10-02T14:44:58.516Z,10.96
2018-10-02T14:47:27.476Z,10.96
2018-10-02T14:49:56.449Z,10.88
2018-10-02T14:52:26.301Z,10.86
2018-10-02T14:54:55.267Z,10.86
2018-10-02T14:57:24.225Z,10.94
2018-10-02T14:59:53.256Z,10.94
2018-10-02T15:02:22.178Z,11.03
2018-10-02T15:04:51.219Z,10.97
2018-10-02T15:07:20.546Z,11.18
2018-10-02T15:09:49.478Z,11.14
2018-10-02T15:12:18.427Z,10.90
2018-10-02T15:14:47.442Z,10.99
2018-10-02T15:17:16.393Z,11.02
2018-10-02T15:19:45.369Z,11.07
2018-10-02T15:22:14.326Z,11.06
2018-10-02T15:24:43.295Z,10.90
2018-10-02T15:27:12.318Z,10.84
2018-10-02T15:29:41.325Z,11.00
2018-10-02T15:32:10.257Z,11.04
2018-10-02T15:34:39.231Z,11.09
2018-10-02T15:37:08.275Z,10.75
2018-10-02T15:39:37.265Z,10.98
2018-10-02T15:42:06.337Z,10.95
2018-10-02T15:44:35.333Z,10.91
2018-10-02T15:47:04.321Z,10.94
2018-10-02T15:49:33.305Z,10.92
2018-10-02T15:52:02.562Z,10.96
2018-10-02T15:54:31.646Z,10.83
2018-10-02T15:57:00.607Z,11.05
2018-10-02T15:59:29.627Z,10.94
2018-10-02T16:01:58.558Z,11.11
2018-10-02T16:04:27.826Z,11.09
2018-10-02T16:06:56.783Z,11.04
2018-10-02T16:09:25.758Z,11.01
2018-10-02T16:11:54.805Z,11.14
2018-10-02T16:14:23.734Z,10.97
2018-10-02T16:16:52.746Z,10.80
2018-10-02T16:19:21.727Z,10.95
2018-10-02T16:21:51.329Z,11.09
2018-10-02T16:24:20.307Z,11.00
2018-10-02T16:26:49.780Z,10.92
2018-10-02T16:29:18.746Z,11.12
2018-10-02T16:31:50.099Z,11.16
2018-10-02T16:34:19.302Z,11.14
2018-10-02T16:36:48.395Z,11.20
2018-10-02T16:39:17.323Z,11.21
2018-10-02T16:41:47.359Z,11.48
2018-10-02T16:44:16.293Z,11.42
2018-10-02T16:46:45.390Z,11.13
2018-10-02T16:49:14.379Z,11.11
2018-10-02T16:51:43.457Z,11.26
2018-10-02T16:54:12.510Z,11.13
2018-10-02T16:56:41.510Z,11.26
2018-10-02T16:59:10.499Z,11.25
2018-10-02T17:01:39.446Z,11.20
2018-10-02T17:04:09.143Z,11.18
2018-10-02T17:06:38.115Z,11.16
2018-10-02T17:09:08.249Z,11.28
2018-10-02T17:11:37.289Z,11.22
2018-10-02T17:14:06.246Z,11.16
2018-10-02T17:16:35.281Z,11.23
2018-10-02T17:19:04.255Z,11.16
2018-10-02T17:21:35.078Z,11.19
2018-10-02T17:24:04.361Z,11.25
2018-10-02T17:26:33.386Z,11.18
2018-10-02T17:29:02.954Z,11.15
2018-10-02T17:31:32.256Z,11.17
2018-10-02T17:34:01.242Z,11.24
2018-10-02T17:36:30.276Z,11.29
2018-10-02T17:38:59.206Z,11.36
2018-10-02T17:41:28.308Z,11.27
2018-10-02T17:43:57.539Z,11.24
2018-10-02T17:46:26.823Z,11.30
2018-10-02T17:48:56.260Z,11.41
2018-10-02T17:51:25.540Z,11.50
2018-10-02T17:53:54.491Z,11.42
2018-10-02T17:56:23.453Z,11.59
2018-10-02T17:58:52.410Z,11.48
2018-10-02T18:01:21.955Z,11.48
2018-10-02T18:03:51.558Z,11.56
2018-10-02T18:06:20.860Z,11.58
2018-10-02T18:08:49.816Z,11.54
2018-10-02T18:11:19.695Z,11.75
2018-10-02T18:13:49.347Z,11.59
2018-10-02T18:16:18.605Z,11.67
2018-10-02T18:18:47.810Z,11.74
2018-10-02T18:21:17.214Z,11.73
2018-10-02T18:23:46.155Z,11.74
2018-10-02T18:26:15.148Z,11.71
2018-10-02T18:28:44.058Z,11.75
2018-10-02T18:31:13.017Z,11.75
2018-10-02T18:33:41.939Z,11.89
2018-10-02T18:36:11.110Z,11.84
2018-10-02T18:38:40.126Z,11.81
2018-10-02T18:41:09.116Z,11.79
2018-10-02T18:43:38.057Z,11.86
2018-10-02T18:46:07.150Z,11.87
2018-10-02T18:48:36.104Z,11.77
2018-10-02T18:51:05.089Z,11.85
2018-10-02T18:53:34.315Z,11.93
2018-10-02T18:56:03.701Z,11.93
2018-10-02T18:58:32.632Z,12.03
2018-10-02T19:01:01.642Z,11.98
2018-10-02T19:03:30.862Z,12.00
2018-10-02T19:06:01.933Z,11.96
2018-10-02T19:08:36.078Z,12.06
2018-10-02T19:11:10.118Z,11.99
2018-10-02T19:13:39.086Z,12.00
2018-10-02T19:16:13.550Z,11.80
2018-10-02T19:18:42.540Z,11.92
2018-10-02T19:21:14.318Z,11.87
2018-10-02T19:23:43.240Z,12.00
2018-10-02T19:26:17.398Z,11.98
2018-10-02T19:28:46.313Z,11.89
2018-10-02T19:31:20.507Z,11.93
2018-10-02T19:33:49.777Z,11.80
2018-10-02T19:36:19.130Z,11.82
2018-10-02T19:38:50.937Z,11.86
2018-10-02T19:41:20.006Z,11.87
2018-10-02T19:43:48.946Z,11.83
2018-10-02T19:47:24.984Z,11.93
2018-10-02T19:49:54.113Z,11.83
2018-10-02T19:52:23.137Z,11.87
2018-10-02T19:54:52.078Z,11.88
2018-10-02T19:57:21.277Z,11.72
2018-10-02T19:59:50.249Z,11.86
2018-10-02T20:02:19.313Z,11.87
2018-10-02T20:04:48.373Z,11.85
2018-10-02T20:07:18.031Z,11.77
2018-10-02T20:09:47.187Z,11.93
2018-10-02T20:12:16.129Z,11.93
2018-10-02T20:14:45.059Z,12.11
2018-10-02T20:17:14.605Z,11.85
2018-10-02T20:19:43.558Z,12.04
2018-10-02T20:22:12.940Z,12.08
2018-10-02T20:24:41.876Z,12.15
2018-10-02T20:27:11.662Z,12.14
2018-10-02T20:29:40.634Z,12.19
2018-10-02T20:32:09.982Z,12.23
2018-10-02T20:34:39.089Z,12.32
2018-10-02T20:37:08.078Z,12.29
2018-10-02T20:39:37.133Z,12.21
2018-10-02T20:42:06.386Z,12.23
2018-10-02T20:44:35.326Z,12.29
2018-10-02T20:47:04.616Z,12.28
2018-10-02T20:49:33.690Z,12.23
2018-10-02T20:52:02.654Z,12.18
2018-10-02T20:54:31.682Z,12.20
2018-10-02T20:57:00.642Z,12.26
2018-10-02T20:59:29.522Z,12.19
2018-10-02T21:01:58.477Z,12.20
2018-10-02T21:04:27.387Z,12.24
2018-10-02T21:06:56.308Z,12.29
2018-10-02T21:09:25.283Z,12.35
2018-10-02T21:11:54.233Z,12.33
2018-10-02T21:14:23.229Z,12.19
2018-10-02T21:16:52.250Z,12.08
2018-10-02T21:19:21.226Z,12.18
2018-10-02T21:21:50.236Z,12.25
2018-10-02T21:24:19.234Z,12.20
2018-10-02T21:26:48.146Z,12.15
2018-10-02T21:29:17.874Z,12.18
2018-10-02T21:31:46.948Z,12.30
2018-10-02T21:34:15.841Z,12.41
2018-10-02T21:36:44.960Z,12.38
2018-10-02T21:39:14.020Z,12.25
2018-10-02T21:41:42.986Z,12.25
2018-10-02T21:44:11.957Z,12.20
2018-10-02T21:46:41.450Z,12.10
2018-10-02T21:49:11.125Z,12.11
2018-10-02T21:51:40.056Z,12.00
2018-10-02T21:54:09.029Z,11.94
2018-10-02T21:56:37.996Z,11.91
2018-10-02T21:59:07.300Z,11.98
2018-10-02T22:01:36.284Z,12.09
2018-10-02T22:04:06.047Z,12.19
2018-10-02T22:06:35.647Z,12.10
2018-10-02T22:09:05.957Z,12.31
2018-10-02T22:11:35.297Z,12.06
2018-10-02T22:14:04.274Z,12.12
2018-10-02T22:16:33.243Z,12.01
2018-10-02T22:19:02.718Z,12.00
2018-10-02T22:21:31.727Z,11.95
2018-10-02T22:24:00.868Z,12.12
2018-10-02T22:26:29.840Z,12.04
2018-10-02T22:28:59.267Z,12.11
2018-10-02T22:31:28.480Z,12.04
2018-10-02T22:33:57.469Z,12.11
2018-10-02T22:36:26.397Z,11.94
2018-10-02T22:38:55.348Z,12.17
2018-10-02T22:41:24.466Z,12.20
2018-10-02T22:43:53.506Z,12.15
2018-10-02T22:46:22.450Z,12.13
2018-10-02T22:48:51.398Z,12.11
2018-10-02T22:51:20.329Z,12.15
2018-10-02T22:53:49.286Z,12.27
2018-10-02T22:56:18.215Z,12.24
2018-10-02T22:58:47.202Z,12.31
2018-10-02T23:01:16.156Z,12.34
2018-10-02T23:03:45.165Z,12.40
2018-10-02T23:06:14.113Z,12.57
2018-10-02T23:08:43.077Z,12.47
2018-10-02T23:11:11.976Z,12.48
2018-10-02T23:13:41.057Z,12.44
2018-10-02T23:16:09.991Z,12.53
2018-10-02T23:18:38.930Z,12.55
2018-10-02T23:21:07.877Z,12.52
2018-10-02T23:23:36.871Z,12.56
2018-10-02T23:26:05.793Z,12.67
2018-10-02T23:28:34.766Z,12.51
2018-10-02T23:31:03.722Z,12.59
2018-10-02T23:33:32.694Z,12.71
2018-10-02T23:36:01.796Z,12.64
2018-10-02T23:38:30.743Z,12.59
2018-10-02T23:40:59.779Z,12.68
2018-10-02T23:43:28.883Z,12.63
2018-10-02T23:45:58.507Z,12.63
2018-10-02T23:48:27.986Z,12.67
2018-10-02T23:50:57.562Z,12.64
2018-10-02T23:53:27.526Z,12.59
2018-10-02T23:55:57.167Z,12.59
2018-10-02T23:58:26.837Z,12.47
